LICJ/PMO METAR and TAF weather

Enter ICAO airport designator
Station Type Date Time Source
LICJ METAR 2020/09/19 04:50 UTC NOAA

LICJ 190450Z 15005KT CAVOK 23/20 Q1017


Station Type Date Time Source
LICJ Decoded METAR 2020/09/19 04:50 UTC NOAA

Palermo / Punta Raisi, Italy (LICJ) 38-11N 013-06E 21M
Sep 19, 2020 - 12:50 AM EDT / 2020.09.19 0450 UTC
Wind: from the SSE (150 degrees) at 6 MPH (5 KT):0
Visibility: greater than 7 mile(s):0
Temperature: 73 F (23 C)
Dew Point: 68 F (20 C)
Relative Humidity: 83%
Pressure (altimeter): 30.03 in. Hg (1017 hPa)
ob: LICJ 190450Z 15005KT CAVOK 23/20 Q1017
cycle: 5

Station Type Date Time Source
LICJ TAF 2020/09/18 18:21 UTC NOAA

TAF LICJ 181700Z 1818/1918 34012KT 9999 SCT020
BECMG 1819/1821 VRB05KT
BECMG 1907/1909 35012KT

Example: see airport list